Kailua, HI

8:23 PM HST on September 20, 2014 (GMT -1000)
Honolulu International | Change Station
CLOSE
Current Station
Airport
Location: Honolulu,
Elevation: 16 ft
Nearby Weather Stations

Elev 16 ft 21.32 °N, 157.92 °W | Updated 30 minutes ago

Scattered Clouds
Scattered Clouds
82 °F
Feels Like 86 °F
N
5
Wind Variable Wind from NNE

Today
High -- | Low -- °F
--% Chance of Precip.
Yesterday
High -- | Low -- °F
Precip. -- in
6:19 AM 6:28 PM
Waning Crescent, 8% visible
Pressure 29.94 in
Visibility 10.0 miles
Clouds Few 3000 ft
Scattered Clouds 5500 ft
Heat Index 86 °F
Dew Point 71 °F
Humidity 69%
Rainfall 0.00 in
Snow Depth Not available.
UV 0 out of 12
Pollen Not available.
Air Quality Not available.
Flu Activity Not available.
METAR PHNL 210553Z 02004KT 10SM FEW030 SCT055 28/22 A2994 RMK AO2 SLP137 60000 T02780217 10311 20278 53019

More Conditions Fewer Conditions

Pressure 29.94 in
Visibility 10.0 miles
Clouds Few 3000 ft
Scattered Clouds 5500 ft
Heat Index 86 °F
Dew Point 71 °F
Humidity 69%
Rainfall 0.00 in
Snow Depth Not available.
UV 0 out of 12
Pollen Not available.
Air Quality Not available.
Flu Activity Not available.
METAR PHNL 210553Z 02004KT 10SM FEW030 SCT055 28/22 A2994 RMK AO2 SLP137 60000 T02780217 10311 20278 53019

More Conditions Fewer Conditions

10-Day Weather Forecast

Almanac

Astronomy

Sep. 20, 2014 Rise Set
Actual Time 6:19 AM HST 6:28 PM HST
Civil Twilight 5:57 AM HST 6:51 PM HST
Nautical Twilight 5:31 AM HST 7:16 PM HST
Astronomical Twilight 5:05 AM HST 7:42 PM HST
Moon 3:27 AM HST (9/20) 4:22 PM HST (9/20)
Length of Visible Light 12h 54m
Length of Day
12h 09m
Tomorrow will be 1m 14s shorter.
Waning Crescent, 8% of the Moon is Illuminated
Sep 21
Waning Crescent
Sep 24
New
Oct 1
First Quarter
Oct 8
Full
Oct 15
Last Quarter

Yesterday's Extremes

State Highs State Lows

Community

WunderPhotos

Upload Photos

1,755,098 photos uploaded!

Nearby

Snow Depth

Station Depth Elevation
No new snow has been reported.

Earthquake Activity

City Distance Mag. Time & Date
No recent earthquake activity has been reported nearby.
Minimum magnitude displayed is 2.5.

Coastal Water Temperatures

Place Temperature
No Stations Reporting

Nearby Weather Stations